Time;durP1;ratioP1;P1;durP2;ratioP2;P2;SDS_P1;SDS_P2;PMS_P1;PMS_P2;Temp;Humidity;BMP_temperature;BMP_pressure;BME280_temperature;BME280_humidity;BME280_pressure;Samples;Min_cycle;Max_cycle;Signal;HPM_P1;HPM_P2
2023/06/26 00:00:24;;;;;;;6.40;5.80;;;26.00;52.50;;;;;;5052240;28;20194;-65
2023/06/26 00:02:50;;;;;;;5.87;5.37;;;26.00;52.50;;;;;;5052273;28;20174;-66
2023/06/26 00:05:15;;;;;;;6.27;5.67;;;26.00;52.50;;;;;;5052146;28;20198;-66
2023/06/26 00:07:41;;;;;;;6.83;5.30;;;26.00;52.50;;;;;;5052157;28;20253;-66
2023/06/26 00:10:07;;;;;;;5.77;5.17;;;26.00;52.50;;;;;;5052077;28;20636;-66
2023/06/26 00:12:32;;;;;;;5.60;5.10;;;26.00;52.50;;;;;;5052112;28;20174;-66
2023/06/26 00:14:58;;;;;;;5.90;5.40;;;26.00;52.50;;;;;;5051964;28;20475;-66
2023/06/26 00:17:24;;;;;;;6.53;5.93;;;26.00;52.50;;;;;;5052069;28;20636;-66
2023/06/26 00:19:50;;;;;;;6.50;5.87;;;26.00;52.50;;;;;;5052196;28;20234;-66
2023/06/26 00:22:16;;;;;;;6.00;5.50;;;26.10;52.60;;;;;;5052147;28;20163;-66
2023/06/26 00:24:41;;;;;;;6.53;5.93;;;26.00;52.50;;;;;;5051926;28;20459;-66
2023/06/26 00:27:07;;;;;;;6.27;5.77;;;26.00;52.60;;;;;;5052092;28;20199;-66
2023/06/26 00:29:33;;;;;;;6.80;5.93;;;26.00;52.60;;;;;;5052026;28;20175;-66
2023/06/26 00:31:59;;;;;;;5.90;5.40;;;26.00;52.60;;;;;;5051948;28;20413;-65
2023/06/26 00:34:24;;;;;;;5.60;5.10;;;26.00;52.60;;;;;;5051843;28;20224;-66
2023/06/26 00:36:50;;;;;;;6.77;5.97;;;26.00;52.80;;;;;;5051764;28;20672;-65
2023/06/26 00:39:15;;;;;;;7.13;6.53;;;26.00;52.80;;;;;;5052121;28;20197;-65
2023/06/26 00:41:41;;;;;;;5.73;5.23;;;26.00;52.80;;;;;;5054868;28;20246;-66
2023/06/26 00:44:07;;;;;;;6.30;5.70;;;26.00;52.90;;;;;;5055989;28;20163;-66
2023/06/26 00:46:34;;;;;;;7.10;6.40;;;26.00;52.90;;;;;;5055738;28;20186;-66
2023/06/26 00:49:03;;;;;;;6.93;6.33;;;26.00;53.00;;;;;;5055973;28;20559;-65
2023/06/26 00:51:29;;;;;;;6.93;6.37;;;26.00;53.00;;;;;;5055809;28;20520;-66
2023/06/26 00:53:56;;;;;;;6.87;6.27;;;25.90;52.90;;;;;;5055743;28;20412;-65
2023/06/26 00:56:23;;;;;;;5.97;5.47;;;26.00;52.90;;;;;;5055632;28;20425;-65
2023/06/26 00:58:49;;;;;;;5.70;5.20;;;26.00;52.90;;;;;;5055948;28;20816;-67
2023/06/26 01:01:17;;;;;;;6.57;6.03;;;26.00;52.90;;;;;;5055615;28;20509;-67
2023/06/26 01:03:45;;;;;;;6.80;6.20;;;26.00;52.90;;;;;;5055511;28;20167;-66
2023/06/26 01:06:12;;;;;;;5.73;5.23;;;26.00;52.90;;;;;;5055484;28;20551;-66
2023/06/26 01:08:40;;;;;;;5.37;4.90;;;26.00;52.90;;;;;;5055470;28;20441;-66
2023/06/26 01:11:06;;;;;;;6.40;5.80;;;26.00;52.90;;;;;;5055343;28;20484;-66
2023/06/26 01:13:34;;;;;;;7.10;6.20;;;26.00;52.90;;;;;;5055294;28;20500;-66
2023/06/26 01:16:00;;;;;;;6.30;5.70;;;26.00;52.90;;;;;;5055484;28;20245;-66
2023/06/26 01:18:26;;;;;;;7.67;6.87;;;26.00;53.00;;;;;;5055151;28;20421;-67
2023/06/26 01:20:52;;;;;;;6.80;6.20;;;26.00;52.90;;;;;;5055218;28;20417;-66
2023/06/26 01:23:47;;;;;;;6.43;5.83;;;26.00;52.90;;;;;;5053935;28;20446;-66
2023/06/26 01:26:20;;;;;;;5.70;5.20;;;26.00;52.90;;;;;;5055044;28;20417;-67
2023/06/26 01:28:46;;;;;;;5.50;5.00;;;26.00;52.90;;;;;;5055439;28;20402;-66
2023/06/26 01:31:13;;;;;;;6.00;5.40;;;26.00;52.80;;;;;;5055113;28;20520;-66
2023/06/26 01:33:40;;;;;;;6.50;5.90;;;26.00;52.90;;;;;;5054994;28;20448;-66
2023/06/26 01:36:06;;;;;;;6.60;6.00;;;26.00;52.90;;;;;;5054865;28;20495;-66
2023/06/26 01:38:32;;;;;;;6.73;6.03;;;25.90;52.90;;;;;;5054887;28;20779;-66
2023/06/26 01:40:58;;;;;;;6.20;5.60;;;26.00;52.90;;;;;;5054886;28;20409;-65
2023/06/26 01:43:51;;;;;;;6.50;5.90;;;26.00;52.90;;;;;;5054839;28;20592;-66
2023/06/26 01:46:21;;;;;;;6.50;5.90;;;26.00;52.90;;;;;;5054769;28;20431;-66
2023/06/26 01:49:28;;;;;;;6.97;6.17;;;25.90;52.90;;;;;;5055025;28;20805;-66
2023/06/26 01:52:25;;;;;;;5.67;5.07;;;26.00;52.90;;;;;;5054056;28;20425;-65
2023/06/26 01:55:06;;;;;;;5.70;5.20;;;25.90;52.80;;;;;;5054571;28;20773;-69
2023/06/26 01:57:33;;;;;;;6.60;6.10;;;25.90;52.90;;;;;;5054635;28;20394;-67
2023/06/26 02:00:01;;;;;;;5.97;5.37;;;25.90;52.90;;;;;;5054735;28;20496;-67
2023/06/26 02:02:28;;;;;;;6.40;5.80;;;25.90;52.90;;;;;;5054529;28;20413;-66
2023/06/26 02:04:54;;;;;;;5.37;4.90;;;25.90;52.90;;;;;;5054367;28;20776;-66
2023/06/26 02:07:19;;;;;;;6.40;5.80;;;25.90;52.90;;;;;;5053181;28;20413;-66
2023/06/26 02:09:45;;;;;;;6.27;5.70;;;25.90;52.90;;;;;;5054367;28;20592;-67
2023/06/26 02:12:11;;;;;;;6.40;5.80;;;25.90;52.90;;;;;;5054299;28;20261;-66
2023/06/26 02:14:36;;;;;;;7.20;6.60;;;26.00;53.00;;;;;;5054297;28;20217;-65
2023/06/26 02:17:02;;;;;;;6.00;5.50;;;26.00;53.00;;;;;;5052839;28;20561;-67
2023/06/26 02:19:27;;;;;;;6.10;5.60;;;26.00;53.00;;;;;;5054097;28;20205;-66
2023/06/26 02:21:54;;;;;;;6.10;5.60;;;26.00;53.00;;;;;;5054394;28;20178;-66
2023/06/26 02:24:19;;;;;;;6.20;5.60;;;26.00;53.00;;;;;;5054055;28;20167;-66
2023/06/26 02:26:45;;;;;;;6.13;5.60;;;26.00;53.00;;;;;;5053925;28;20937;-67
2023/06/26 02:29:11;;;;;;;6.40;5.83;;;26.00;53.00;;;;;;5054009;28;20668;-66
2023/06/26 02:31:37;;;;;;;5.63;5.10;;;26.00;52.90;;;;;;5052705;28;20237;-66
2023/06/26 02:34:04;;;;;;;6.23;5.63;;;26.00;53.00;;;;;;5054141;28;20405;-67
2023/06/26 02:36:29;;;;;;;6.20;5.60;;;26.00;53.10;;;;;;5053790;28;20206;-66
2023/06/26 02:38:55;;;;;;;6.70;5.23;;;25.90;52.90;;;;;;5052417;28;20461;-66
2023/06/26 02:41:21;;;;;;;5.70;5.20;;;25.90;53.00;;;;;;5053789;28;20175;-66
2023/06/26 02:43:46;;;;;;;6.43;5.83;;;25.90;53.10;;;;;;5053736;28;20171;-66
2023/06/26 02:46:12;;;;;;;5.77;5.27;;;25.90;53.10;;;;;;5053585;28;20725;-67
2023/06/26 02:48:37;;;;;;;7.10;6.50;;;25.90;53.10;;;;;;5053631;28;20583;-66
2023/06/26 02:51:03;;;;;;;6.17;5.50;;;25.90;53.10;;;;;;5053446;28;20273;-67
2023/06/26 02:53:29;;;;;;;6.93;6.23;;;25.90;53.10;;;;;;5053509;28;20175;-67
2023/06/26 02:55:54;;;;;;;6.40;5.80;;;25.90;53.20;;;;;;5053366;28;20606;-67
2023/06/26 02:58:20;;;;;;;5.90;5.40;;;25.90;53.20;;;;;;5053300;28;20586;-67
2023/06/26 03:00:46;;;;;;;6.07;5.57;;;25.90;53.10;;;;;;5053356;28;20167;-67
2023/06/26 03:03:12;;;;;;;6.27;5.67;;;25.90;53.20;;;;;;5052610;28;20167;-67
2023/06/26 03:05:38;;;;;;;6.03;5.43;;;25.90;53.10;;;;;;5053414;28;20437;-66
2023/06/26 03:08:04;;;;;;;6.40;5.60;;;25.90;53.20;;;;;;5053202;28;20496;-67
2023/06/26 03:10:29;;;;;;;6.53;5.77;;;25.90;53.10;;;;;;5053229;28;20171;-68
2023/06/26 03:12:55;;;;;;;5.90;5.40;;;25.90;53.10;;;;;;5053171;28;20667;-67
2023/06/26 03:15:21;;;;;;;6.47;5.97;;;25.90;53.20;;;;;;5053001;28;20222;-67
2023/06/26 03:17:46;;;;;;;6.93;6.27;;;25.90;53.20;;;;;;5053045;28;20232;-67
2023/06/26 03:20:12;;;;;;;5.90;5.43;;;25.90;53.20;;;;;;5052915;28;20199;-66
2023/06/26 03:22:37;;;;;;;6.10;5.50;;;25.90;53.20;;;;;;5053009;28;20220;-66
2023/06/26 03:25:04;;;;;;;5.70;5.20;;;25.90;53.10;;;;;;5052860;28;20655;-66
2023/06/26 03:27:30;;;;;;;5.80;5.30;;;25.90;53.20;;;;;;5052901;28;20217;-67
2023/06/26 03:29:56;;;;;;;5.60;5.10;;;25.90;53.20;;;;;;5052839;28;20409;-66
2023/06/26 03:32:21;;;;;;;6.30;5.70;;;25.90;53.20;;;;;;5052762;28;20515;-67
2023/06/26 03:34:47;;;;;;;6.33;5.73;;;25.90;53.10;;;;;;5052942;28;20589;-67
2023/06/26 03:37:12;;;;;;;5.20;4.70;;;25.90;53.20;;;;;;5052704;28;20167;-67
2023/06/26 03:39:38;;;;;;;6.07;5.57;;;25.90;53.10;;;;;;5052556;28;20248;-67
2023/06/26 03:42:04;;;;;;;6.07;5.60;;;25.90;53.20;;;;;;5052682;28;20171;-67
2023/06/26 03:44:30;;;;;;;6.23;5.73;;;25.90;53.20;;;;;;5052598;28;20169;-66
2023/06/26 03:46:55;;;;;;;6.63;5.93;;;25.90;53.20;;;;;;5052512;28;20187;-66
2023/06/26 03:49:21;;;;;;;6.67;6.10;;;25.90;53.20;;;;;;5052528;28;20182;-66
2023/06/26 03:51:46;;;;;;;6.03;5.53;;;25.90;53.20;;;;;;5052515;28;20217;-66
2023/06/26 03:54:12;;;;;;;6.67;6.10;;;25.90;53.20;;;;;;5052404;28;20652;-67
2023/06/26 03:56:38;;;;;;;6.67;6.07;;;25.90;53.20;;;;;;5052351;28;20203;-66
2023/06/26 03:59:03;;;;;;;6.23;5.73;;;25.90;53.20;;;;;;5052225;28;20202;-66
2023/06/26 04:01:29;;;;;;;5.83;5.23;;;25.90;53.10;;;;;;5052326;28;20171;-68
2023/06/26 04:03:54;;;;;;;6.20;5.60;;;25.90;53.20;;;;;;5052449;28;20640;-66
2023/06/26 04:06:20;;;;;;;5.60;5.10;;;25.90;53.10;;;;;;5052158;28;20199;-67
2023/06/26 04:08:46;;;;;;;5.67;5.17;;;25.90;53.10;;;;;;5052175;28;20167;-67
2023/06/26 04:11:11;;;;;;;6.10;5.50;;;25.90;53.10;;;;;;5051868;28;20186;-67
2023/06/26 04:13:37;;;;;;;5.33;4.83;;;25.90;53.20;;;;;;5052330;28;20640;-67
2023/06/26 04:16:03;;;;;;;5.80;5.30;;;25.90;53.10;;;;;;5052241;28;20202;-66
2023/06/26 04:18:29;;;;;;;6.27;5.77;;;25.90;53.00;;;;;;5051989;28;20175;-67
2023/06/26 04:21:11;;;;;;;6.33;5.73;;;25.90;53.10;;;;;;5051957;28;20412;-67
2023/06/26 04:23:39;;;;;;;6.40;5.80;;;26.00;53.10;;;;;;5052234;28;20173;-66
2023/06/26 04:26:06;;;;;;;6.77;6.10;;;26.00;53.20;;;;;;5052009;28;20421;-67
2023/06/26 04:28:32;;;;;;;7.50;6.80;;;25.90;53.00;;;;;;5050476;28;20412;-65
2023/06/26 04:30:58;;;;;;;7.07;6.37;;;25.90;53.00;;;;;;5051896;28;20416;-66
2023/06/26 04:33:25;;;;;;;7.23;6.40;;;25.90;53.00;;;;;;5051839;28;20776;-67
2023/06/26 04:35:51;;;;;;;7.07;6.37;;;26.00;53.10;;;;;;5051667;28;20957;-67
2023/06/26 04:38:17;;;;;;;7.33;6.37;;;26.00;53.10;;;;;;5051828;28;20437;-66
2023/06/26 04:40:42;;;;;;;7.47;6.70;;;26.00;53.10;;;;;;5051687;28;20230;-66
2023/06/26 04:43:08;;;;;;;8.40;6.63;;;26.00;53.20;;;;;;5051806;28;20175;-66
2023/06/26 04:45:34;;;;;;;7.20;6.57;;;26.00;53.70;;;;;;5051608;28;20191;-66
2023/06/26 04:48:02;;;;;;;8.00;7.20;;;26.00;53.80;;;;;;5051578;28;20672;-66
2023/06/26 04:50:28;;;;;;;7.27;6.57;;;26.00;53.20;;;;;;5050816;28;20191;-66
2023/06/26 04:52:55;;;;;;;7.13;6.00;;;26.00;53.20;;;;;;5051638;28;20412;-67
2023/06/26 04:55:21;;;;;;;7.20;6.20;;;26.00;53.20;;;;;;5051622;28;20820;-66
2023/06/26 04:57:47;;;;;;;6.57;5.97;;;26.00;53.20;;;;;;5051897;28;20456;-67
2023/06/26 05:00:13;;;;;;;6.90;6.30;;;26.00;53.10;;;;;;5051484;28;20492;-66
2023/06/26 05:02:39;;;;;;;5.40;4.90;;;26.00;53.10;;;;;;5051581;28;20174;-66
2023/06/26 05:05:05;;;;;;;7.00;6.30;;;26.00;53.00;;;;;;5051496;28;20406;-67
2023/06/26 05:07:30;;;;;;;8.10;7.33;;;26.00;53.00;;;;;;5051552;28;20253;-67
2023/06/26 05:09:56;;;;;;;7.33;6.30;;;26.00;53.10;;;;;;5051569;28;20179;-67
2023/06/26 05:12:21;;;;;;;6.93;6.30;;;26.00;53.20;;;;;;5051463;28;20210;-67
2023/06/26 05:14:47;;;;;;;9.70;6.87;;;26.00;53.20;;;;;;5050041;28;20721;-67
2023/06/26 05:17:16;;;;;;;6.00;5.47;;;26.00;53.30;;;;;;5051416;28;20183;-67
2023/06/26 05:19:41;;;;;;;7.20;6.50;;;26.00;53.30;;;;;;5051398;28;20225;-67
2023/06/26 05:22:08;;;;;;;7.40;6.70;;;26.00;53.30;;;;;;5051419;28;20414;-67
2023/06/26 05:24:38;;;;;;;8.37;7.50;;;26.00;53.30;;;;;;5051384;28;20652;-66
2023/06/26 05:27:04;;;;;;;7.30;6.60;;;26.00;53.30;;;;;;5052989;28;20520;-67
2023/06/26 05:29:33;;;;;;;6.90;5.97;;;26.00;53.30;;;;;;5054796;28;20941;-67
2023/06/26 05:31:59;;;;;;;7.53;6.80;;;26.00;53.30;;;;;;5055303;28;20424;-67
2023/06/26 05:34:29;;;;;;;7.33;6.70;;;26.00;53.30;;;;;;5055049;28;20433;-67
2023/06/26 05:36:58;;;;;;;6.93;6.23;;;26.00;53.30;;;;;;5055096;28;20433;-67
2023/06/26 05:39:24;;;;;;;7.40;6.70;;;26.00;53.30;;;;;;5054895;28;20451;-68
2023/06/26 05:41:51;;;;;;;7.03;6.37;;;26.00;53.20;;;;;;5054913;28;20504;-66
2023/06/26 05:44:16;;;;;;;7.50;6.80;;;26.00;53.30;;;;;;5054786;28;20406;-67
2023/06/26 05:46:43;;;;;;;7.10;6.40;;;26.00;53.30;;;;;;5054759;28;20417;-66
2023/06/26 05:49:09;;;;;;;8.50;6.67;;;26.00;53.30;;;;;;5054198;28;20181;-67
2023/06/26 05:51:35;;;;;;;6.77;6.17;;;26.00;53.30;;;;;;5054028;28;20879;-66
2023/06/26 05:54:01;;;;;;;8.87;7.97;;;26.00;53.20;;;;;;5053642;28;20275;-66
2023/06/26 05:56:27;;;;;;;6.13;5.10;;;26.00;53.30;;;;;;5054585;28;20563;-66
2023/06/26 05:58:54;;;;;;;7.33;6.13;;;26.00;53.30;;;;;;5054696;28;20285;-65
2023/06/26 06:01:19;;;;;;;7.07;6.37;;;26.00;53.20;;;;;;5054589;28;20491;-67
2023/06/26 06:03:45;;;;;;;6.70;5.93;;;26.00;53.20;;;;;;5054747;28;20437;-66
2023/06/26 06:06:11;;;;;;;7.30;6.70;;;26.00;53.20;;;;;;5054290;28;20191;-67
2023/06/26 06:08:37;;;;;;;6.80;5.93;;;26.00;53.10;;;;;;5054415;28;20171;-67
2023/06/26 06:11:02;;;;;;;7.10;6.10;;;26.00;53.10;;;;;;5054590;28;20775;-67
2023/06/26 06:13:28;;;;;;;7.57;6.77;;;26.00;53.00;;;;;;5054258;28;20174;-67
2023/06/26 06:15:54;;;;;;;6.60;6.00;;;26.00;53.00;;;;;;5054139;28;20672;-66
2023/06/26 06:18:20;;;;;;;7.00;6.27;;;26.00;53.00;;;;;;5054255;28;20683;-67
2023/06/26 06:20:46;;;;;;;8.17;6.30;;;26.00;52.90;;;;;;5054011;28;20514;-67
2023/06/26 06:23:11;;;;;;;6.90;6.30;;;26.00;52.80;;;;;;5054138;28;20177;-67
2023/06/26 06:25:37;;;;;;;7.43;6.60;;;26.00;52.80;;;;;;5054011;28;20270;-67
2023/06/26 06:28:04;;;;;;;7.73;6.20;;;26.00;52.80;;;;;;5054036;28;20581;-66
2023/06/26 06:30:30;;;;;;;6.70;6.10;;;26.00;52.80;;;;;;5053974;28;20182;-66
2023/06/26 06:32:55;;;;;;;6.87;6.17;;;26.00;52.80;;;;;;5053976;28;20750;-67
2023/06/26 06:35:21;;;;;;;7.67;6.47;;;26.00;52.80;;;;;;5053852;28;20271;-66
2023/06/26 06:37:47;;;;;;;6.77;5.97;;;26.00;52.80;;;;;;5052896;28;20222;-67
2023/06/26 06:40:13;;;;;;;6.77;6.07;;;26.00;52.80;;;;;;5053577;28;20249;-67
2023/06/26 06:42:38;;;;;;;7.30;6.10;;;26.00;52.70;;;;;;5053677;28;20171;-67
2023/06/26 06:45:05;;;;;;;7.00;6.40;;;26.00;52.70;;;;;;5053586;28;20977;-68
2023/06/26 06:47:32;;;;;;;9.30;7.07;;;26.00;52.60;;;;;;5053882;28;20171;-67
2023/06/26 06:49:58;;;;;;;6.40;5.77;;;26.00;52.60;;;;;;5053462;28;20857;-68
2023/06/26 06:52:24;;;;;;;6.53;5.93;;;26.00;52.60;;;;;;5053624;28;20406;-68
2023/06/26 06:54:55;;;;;;;6.43;5.83;;;26.00;52.60;;;;;;5053409;28;20599;-68
2023/06/26 06:57:21;;;;;;;6.30;5.67;;;26.10;52.70;;;;;;5053484;28;20183;-65
2023/06/26 06:59:48;;;;;;;7.37;6.57;;;26.00;52.60;;;;;;5053371;28;20555;-65
2023/06/26 07:02:15;;;;;;;7.50;6.70;;;26.00;52.50;;;;;;5053423;28;20416;-67
2023/06/26 07:04:41;;;;;;;8.77;6.20;;;26.00;52.50;;;;;;5053540;28;20472;-67
2023/06/26 07:07:08;;;;;;;7.40;6.70;;;26.10;52.60;;;;;;5053454;28;20468;-67
2023/06/26 07:09:34;;;;;;;7.53;6.43;;;26.10;52.60;;;;;;5053249;28;20171;-68
2023/06/26 07:12:00;;;;;;;7.50;6.80;;;26.10;52.60;;;;;;5053243;28;20934;-66
2023/06/26 07:14:25;;;;;;;7.87;6.20;;;26.10;52.60;;;;;;5053182;28;20640;-67
2023/06/26 07:16:51;;;;;;;7.23;6.00;;;26.10;52.60;;;;;;5053348;28;20759;-66
2023/06/26 07:19:17;;;;;;;6.90;6.20;;;26.10;52.50;;;;;;5052998;28;20210;-66
2023/06/26 07:21:44;;;;;;;8.20;6.50;;;26.10;52.50;;;;;;5052968;28;20171;-67
2023/06/26 07:24:10;;;;;;;7.17;5.70;;;26.10;52.50;;;;;;5052929;28;20672;-67
2023/06/26 07:26:36;;;;;;;8.43;6.17;;;26.10;52.50;;;;;;5052879;28;20787;-65
2023/06/26 07:29:01;;;;;;;7.07;6.37;;;26.10;52.50;;;;;;5052832;28;20508;-67
2023/06/26 07:31:27;;;;;;;9.10;6.00;;;26.10;52.50;;;;;;5052808;28;20183;-67
2023/06/26 07:33:52;;;;;;;18.10;6.77;;;26.10;52.50;;;;;;5051582;28;20183;-66
2023/06/26 07:36:18;;;;;;;8.40;6.20;;;26.10;52.50;;;;;;5052835;28;20201;-67
2023/06/26 07:38:44;;;;;;;11.20;6.87;;;26.10;52.50;;;;;;5053012;28;20532;-68
2023/06/26 07:41:09;;;;;;;10.43;5.80;;;26.10;52.50;;;;;;5052685;28;20174;-68
2023/06/26 07:43:35;;;;;;;7.93;6.13;;;26.10;52.50;;;;;;5052725;28;20683;-67
2023/06/26 07:46:00;;;;;;;8.20;7.43;;;26.10;52.50;;;;;;5052920;28;20629;-67
2023/06/26 07:48:26;;;;;;;7.43;6.73;;;26.10;52.50;;;;;;5052778;28;20709;-67
2023/06/26 07:50:51;;;;;;;7.50;6.80;;;26.10;52.40;;;;;;5052099;28;20214;-68
2023/06/26 07:53:17;;;;;;;8.13;6.97;;;26.10;52.40;;;;;;5052550;28;20558;-67
2023/06/26 07:55:43;;;;;;;7.77;6.63;;;26.10;52.30;;;;;;5052435;28;20202;-67
2023/06/26 07:58:11;;;;;;;8.03;7.00;;;26.10;52.30;;;;;;5052472;28;20252;-67
2023/06/26 08:00:37;;;;;;;6.80;6.10;;;26.10;52.20;;;;;;5034292;28;20629;-67
2023/06/26 08:03:03;;;;;;;6.10;5.50;;;26.10;52.20;;;;;;5052424;28;20444;-67
2023/06/26 08:05:29;;;;;;;7.37;6.67;;;26.10;52.20;;;;;;5052215;28;20488;-67
2023/06/26 08:07:55;;;;;;;9.53;8.53;;;26.10;52.20;;;;;;5052270;28;20414;-68
2023/06/26 08:10:20;;;;;;;7.53;6.83;;;26.10;52.10;;;;;;5052281;28;20781;-68
2023/06/26 08:12:46;;;;;;;7.80;6.97;;;26.10;52.10;;;;;;5052186;28;20203;-68
2023/06/26 08:15:12;;;;;;;7.90;6.23;;;26.10;52.10;;;;;;5052157;28;20206;-68
2023/06/26 08:17:38;;;;;;;8.13;7.00;;;26.20;52.20;;;;;;5052137;28;20902;-67
2023/06/26 08:20:07;;;;;;;8.07;6.30;;;26.20;52.10;;;;;;5052074;28;20210;-68
2023/06/26 08:22:33;;;;;;;7.50;6.80;;;26.20;52.10;;;;;;5052336;28;20459;-68
2023/06/26 08:24:59;;;;;;;6.90;6.30;;;26.20;52.10;;;;;;5052057;28;20413;-67
2023/06/26 08:27:25;;;;;;;7.43;6.73;;;26.20;52.10;;;;;;5052266;28;20780;-67
2023/06/26 08:29:51;;;;;;;6.90;6.30;;;26.20;52.00;;;;;;5052405;28;20309;-67
2023/06/26 08:32:17;;;;;;;7.10;6.40;;;26.20;51.90;;;;;;5052719;28;20945;-67
2023/06/26 08:34:42;;;;;;;7.63;6.83;;;26.20;51.90;;;;;;5051072;28;20171;-67
2023/06/26 08:37:09;;;;;;;7.13;6.43;;;26.20;51.90;;;;;;5050616;28;20541;-66
2023/06/26 08:39:34;;;;;;;9.50;7.00;;;26.20;51.80;;;;;;5051968;28;20205;-67
2023/06/26 08:42:00;;;;;;;9.10;7.37;;;26.20;51.80;;;;;;5051934;28;20409;-67
2023/06/26 08:44:26;;;;;;;7.70;7.00;;;26.20;51.80;;;;;;5051940;28;20267;-67
2023/06/26 08:46:51;;;;;;;7.63;6.93;;;26.20;51.80;;;;;;5051693;28;20202;-67
2023/06/26 08:49:50;;;;;;;7.33;6.63;;;26.20;51.80;;;;;;5051835;28;20261;-67
2023/06/26 08:52:40;;;;;;;9.67;7.40;;;26.20;51.70;;;;;;5051752;28;20274;-68
2023/06/26 08:55:10;;;;;;;8.00;7.20;;;26.20;51.70;;;;;;5051622;28;20817;-67
2023/06/26 08:57:36;;;;;;;10.33;8.30;;;26.20;51.70;;;;;;5051991;28;20421;-67
2023/06/26 09:00:03;;;;;;;7.90;7.20;;;26.20;52.20;;;;;;5051789;28;20456;-67
2023/06/26 09:02:29;;;;;;;13.20;7.40;;;26.20;51.70;;;;;;5054373;28;20401;-66
2023/06/26 09:04:54;;;;;;;8.30;7.60;;;26.20;51.60;;;;;;5055606;28;20762;-67
2023/06/26 09:07:20;;;;;;;8.70;7.83;;;26.20;51.60;;;;;;5055698;28;20183;-68
2023/06/26 09:09:46;;;;;;;7.30;6.60;;;26.30;51.60;;;;;;5055620;28;20218;-68
2023/06/26 09:12:13;;;;;;;8.60;7.80;;;26.30;51.60;;;;;;5055593;28;20593;-67
2023/06/26 09:14:39;;;;;;;8.20;7.40;;;26.20;51.50;;;;;;5055771;28;20183;-68
2023/06/26 09:17:04;;;;;;;8.67;7.27;;;26.30;51.50;;;;;;5055673;28;20512;-68
2023/06/26 09:19:30;;;;;;;8.33;7.17;;;26.30;51.50;;;;;;5055292;28;20510;-67
2023/06/26 09:21:56;;;;;;;9.03;8.13;;;26.30;51.50;;;;;;5055415;28;20172;-67
2023/06/26 09:24:22;;;;;;;9.60;8.03;;;26.30;51.40;;;;;;5055269;28;20175;-67
2023/06/26 09:26:49;;;;;;;8.10;7.30;;;26.30;51.40;;;;;;5055195;28;21018;-67
2023/06/26 09:29:15;;;;;;;8.43;7.63;;;26.30;51.40;;;;;;5055560;28;20179;-67
2023/06/26 09:31:41;;;;;;;8.53;7.50;;;26.30;51.40;;;;;;5055197;28;20917;-67
2023/06/26 09:34:07;;;;;;;8.17;7.13;;;26.30;51.40;;;;;;5055176;28;20421;-67
2023/06/26 09:36:33;;;;;;;8.93;7.67;;;26.30;51.30;;;;;;5055030;28;20207;-67
2023/06/26 09:39:00;;;;;;;9.00;7.80;;;26.30;51.20;;;;;;5055239;28;20464;-67
2023/06/26 09:41:27;;;;;;;8.40;7.50;;;26.30;51.30;;;;;;5055405;28;20420;-68
2023/06/26 09:43:52;;;;;;;9.50;7.60;;;26.30;51.80;;;;;;5054999;28;20473;-65
2023/06/26 09:46:26;;;;;;;7.90;7.00;;;26.40;51.30;;;;;;5054923;28;20839;-68
2023/06/26 09:49:05;;;;;;;8.33;7.50;;;26.30;51.10;;;;;;5054766;28;20237;-69
2023/06/26 09:51:32;;;;;;;8.03;7.33;;;26.40;51.20;;;;;;5054550;28;20398;-67
2023/06/26 09:53:58;;;;;;;8.40;7.50;;;26.30;51.20;;;;;;5054672;28;20425;-68
2023/06/26 09:56:24;;;;;;;8.53;7.70;;;26.40;51.20;;;;;;5054583;28;20425;-67
2023/06/26 09:58:50;;;;;;;8.30;7.07;;;26.40;51.10;;;;;;5054457;28;20984;-67
2023/06/26 10:01:18;;;;;;;9.33;7.53;;;26.40;51.10;;;;;;5054692;28;20174;-67
2023/06/26 10:03:44;;;;;;;8.83;7.93;;;26.40;51.10;;;;;;5054685;28;20611;-67
2023/06/26 10:06:11;;;;;;;8.10;7.30;;;26.40;51.00;;;;;;5054795;28;20464;-67
2023/06/26 10:08:39;;;;;;;9.10;8.20;;;26.40;51.00;;;;;;5053267;28;20180;-67
2023/06/26 10:11:05;;;;;;;9.20;8.30;;;26.40;51.00;;;;;;5054778;28;20412;-67
2023/06/26 10:13:39;;;;;;;8.80;7.90;;;26.40;50.90;;;;;;5054552;28;20405;-67
2023/06/26 10:16:07;;;;;;;9.60;7.97;;;26.40;50.70;;;;;;5054366;28;20282;-68
2023/06/26 10:18:36;;;;;;;7.83;7.13;;;26.40;50.80;;;;;;5054339;28;20425;-67
2023/06/26 10:21:05;;;;;;;8.97;7.63;;;26.40;50.80;;;;;;5054290;28;20934;-66
2023/06/26 10:23:31;;;;;;;9.87;8.47;;;26.40;50.70;;;;;;5054197;28;20773;-68
2023/06/26 10:26:00;;;;;;;8.57;7.77;;;26.40;50.70;;;;;;5054086;28;20431;-67
2023/06/26 10:28:28;;;;;;;8.93;8.03;;;26.40;50.60;;;;;;5054069;28;20484;-68
2023/06/26 10:30:55;;;;;;;11.93;8.77;;;26.40;50.70;;;;;;5054045;28;20401;-67
2023/06/26 10:33:22;;;;;;;7.97;7.27;;;26.40;50.60;;;;;;5053992;28;20401;-67
2023/06/26 10:35:47;;;;;;;8.27;7.47;;;26.40;50.60;;;;;;5053826;28;20946;-67
2023/06/26 10:38:13;;;;;;;8.67;7.70;;;26.40;50.60;;;;;;5054055;28;20404;-66
2023/06/26 10:40:44;;;;;;;11.10;8.70;;;26.40;50.50;;;;;;5053824;28;20198;-67
2023/06/26 10:43:12;;;;;;;9.27;7.60;;;26.40;50.30;;;;;;5053853;28;20179;-66
2023/06/26 10:45:46;;;;;;;8.53;7.67;;;26.40;50.20;;;;;;5053704;28;20422;-67
2023/06/26 10:48:15;;;;;;;8.20;7.37;;;26.40;50.00;;;;;;5053841;28;20503;-67
2023/06/26 10:50:41;;;;;;;7.97;7.17;;;26.40;50.00;;;;;;5053664;28;20491;-67
2023/06/26 10:53:24;;;;;;;7.63;6.87;;;26.40;49.50;;;;;;5052462;28;20817;-67
2023/06/26 10:55:59;;;;;;;7.63;6.83;;;26.40;49.50;;;;;;5053787;28;20229;-67
2023/06/26 10:58:41;;;;;;;8.50;7.60;;;26.40;49.40;;;;;;5052249;28;20431;-68
2023/06/26 11:01:25;;;;;;;8.20;7.30;;;26.40;49.30;;;;;;5053502;28;20507;-67
2023/06/26 11:04:04;;;;;;;8.10;7.40;;;26.40;49.20;;;;;;5053463;28;20497;-66
2023/06/26 11:06:30;;;;;;;7.57;6.87;;;26.40;48.90;;;;;;5053682;28;20422;-67
2023/06/26 11:09:05;;;;;;;7.27;6.57;;;26.40;49.00;;;;;;5053716;28;20413;-67
2023/06/26 11:11:57;;;;;;;7.10;6.40;;;26.40;49.00;;;;;;5053391;28;20504;-67
2023/06/26 11:14:23;;;;;;;7.43;6.73;;;26.40;48.80;;;;;;5053336;28;20405;-67
2023/06/26 11:16:49;;;;;;;6.40;5.80;;;26.40;49.00;;;;;;5053198;28;20417;-67
2023/06/26 11:19:18;;;;;;;6.77;6.17;;;26.40;48.80;;;;;;5053287;28;20834;-67
2023/06/26 11:21:44;;;;;;;7.67;6.87;;;26.40;48.80;;;;;;5053510;28;20428;-67
2023/06/26 11:24:11;;;;;;;8.03;6.60;;;26.40;48.70;;;;;;5052620;28;20402;-67
2023/06/26 11:26:44;;;;;;;6.53;5.93;;;26.40;48.50;;;;;;5053028;28;20186;-67
2023/06/26 11:29:11;;;;;;;6.27;5.73;;;26.40;49.00;;;;;;5053403;28;20942;-67
2023/06/26 11:31:41;;;;;;;7.60;6.77;;;26.40;48.50;;;;;;5051692;28;20803;-68
2023/06/26 11:34:11;;;;;;;7.53;6.83;;;26.40;48.40;;;;;;5052939;28;20417;-67
2023/06/26 11:36:38;;;;;;;9.97;6.47;;;26.40;48.00;;;;;;5052742;28;20418;-67
2023/06/26 11:39:06;;;;;;;7.13;6.30;;;26.40;47.70;;;;;;5053033;28;20449;-66
2023/06/26 11:41:32;;;;;;;6.87;6.17;;;26.40;47.80;;;;;;5052823;28;20412;-67
2023/06/26 11:44:02;;;;;;;6.53;5.83;;;26.40;47.90;;;;;;5052586;28;20492;-66
2023/06/26 11:46:30;;;;;;;7.40;6.50;;;26.40;48.00;;;;;;5052595;28;20433;-67
2023/06/26 11:48:56;;;;;;;6.97;6.30;;;26.40;47.90;;;;;;5052532;28;20405;-68
2023/06/26 11:51:21;;;;;;;6.97;6.27;;;26.40;47.90;;;;;;5052561;28;20444;-68
2023/06/26 11:53:48;;;;;;;7.23;6.40;;;26.40;47.90;;;;;;5052475;28;20257;-67
2023/06/26 11:56:15;;;;;;;8.97;6.17;;;26.40;48.10;;;;;;5052454;28;20183;-65
2023/06/26 11:59:03;;;;;;;7.70;6.90;;;26.40;48.00;;;;;;5052715;28;20761;-67
2023/06/26 12:01:34;;;;;;;6.93;6.30;;;26.50;48.00;;;;;;5052493;28;20401;-67
2023/06/26 12:04:04;;;;;;;6.70;6.10;;;26.50;47.90;;;;;;5052348;28;20435;-67
2023/06/26 12:06:50;;;;;;;6.37;5.40;;;26.40;47.60;;;;;;5052418;28;20436;-67
2023/06/26 12:09:21;;;;;;;7.10;6.50;;;26.50;47.80;;;;;;5052566;28;20386;-68
2023/06/26 12:11:48;;;;;;;6.60;5.90;;;26.50;47.90;;;;;;5052455;28;20910;-67
2023/06/26 12:14:15;;;;;;;7.10;6.50;;;26.50;47.90;;;;;;5052398;28;20433;-67
2023/06/26 12:16:40;;;;;;;6.40;5.80;;;26.50;47.90;;;;;;5050924;28;20473;-68
2023/06/26 12:19:08;;;;;;;6.47;5.87;;;26.50;47.70;;;;;;5052188;28;20503;-67
2023/06/26 12:21:36;;;;;;;6.67;6.07;;;26.50;47.80;;;;;;5051442;28;20182;-66
2023/06/26 12:24:03;;;;;;;8.60;7.00;;;26.50;47.90;;;;;;5052341;28;20511;-67
2023/06/26 12:26:29;;;;;;;7.77;6.97;;;26.50;47.90;;;;;;5052071;28;20504;-67
2023/06/26 12:29:20;;;;;;;8.40;6.80;;;26.50;47.90;;;;;;5051953;28;20413;-67
2023/06/26 12:31:54;;;;;;;27.90;12.87;;;26.50;47.80;;;;;;5052439;28;20451;-67
2023/06/26 12:34:27;;;;;;;16.63;10.17;;;26.50;47.70;;;;;;5052180;28;20409;-67
2023/06/26 12:36:53;;;;;;;31.17;15.97;;;26.60;48.00;;;;;;5051192;28;20417;-67
2023/06/26 12:39:22;;;;;;;31.30;13.60;;;26.50;47.80;;;;;;5051724;28;20464;-67
2023/06/26 12:41:59;;;;;;;34.57;18.20;;;26.60;48.00;;;;;;5051988;28;20217;-68
2023/06/26 12:44:26;;;;;;;30.93;17.03;;;26.60;48.00;;;;;;5050883;28;20389;-67
2023/06/26 12:46:59;;;;;;;28.50;16.27;;;26.60;48.10;;;;;;5051656;28;20427;-67